createdAt,value
2018-12-06T00:01:01.437Z,3.60
2018-12-06T00:03:28.905Z,3.60
2018-12-06T00:05:56.343Z,3.63
2018-12-06T00:08:23.795Z,3.62
2018-12-06T00:10:51.275Z,3.63
2018-12-06T00:13:18.714Z,3.67
2018-12-06T00:15:46.269Z,3.68
2018-12-06T00:18:13.882Z,3.67
2018-12-06T00:20:41.369Z,3.68
2018-12-06T00:23:08.827Z,3.69
2018-12-06T00:25:36.312Z,3.67
2018-12-06T00:28:03.910Z,3.65
2018-12-06T00:30:36.388Z,3.65
2018-12-06T00:33:04.272Z,3.62
2018-12-06T00:35:31.805Z,3.61
2018-12-06T00:37:59.273Z,3.61
2018-12-06T00:40:26.751Z,3.62
2018-12-06T00:42:54.448Z,3.60
2018-12-06T00:45:21.935Z,3.57
2018-12-06T00:47:49.409Z,3.63
2018-12-06T00:50:16.871Z,3.60
2018-12-06T00:52:44.344Z,3.60
2018-12-06T00:55:11.860Z,3.56
2018-12-06T00:57:39.874Z,3.51
2018-12-06T01:00:08.277Z,3.54
2018-12-06T01:02:35.736Z,3.55
2018-12-06T01:05:03.457Z,3.58
2018-12-06T01:07:30.931Z,3.59
2018-12-06T01:09:58.405Z,3.57
2018-12-06T01:12:25.876Z,3.60
2018-12-06T01:14:53.336Z,3.59
2018-12-06T01:17:21.325Z,3.61
2018-12-06T01:19:48.927Z,3.60
2018-12-06T01:22:16.396Z,3.60
2018-12-06T01:24:44.664Z,3.60
2018-12-06T01:27:12.125Z,3.62
2018-12-06T01:29:39.647Z,3.65
2018-12-06T01:32:07.104Z,3.62
2018-12-06T01:34:34.611Z,3.61
2018-12-06T01:37:02.076Z,3.60
2018-12-06T01:39:29.526Z,3.65
2018-12-06T01:41:57.008Z,3.60
2018-12-06T01:44:24.465Z,3.60
2018-12-06T01:46:51.951Z,3.63
2018-12-06T01:49:19.885Z,3.65
2018-12-06T01:51:47.668Z,3.63
2018-12-06T01:54:15.121Z,3.63
2018-12-06T01:56:42.598Z,3.63
2018-12-06T01:59:10.057Z,3.60
2018-12-06T02:01:37.494Z,3.63
2018-12-06T02:04:04.960Z,3.62
2018-12-06T02:06:32.407Z,3.62
2018-12-06T02:08:59.893Z,3.63
2018-12-06T02:11:27.345Z,3.62
2018-12-06T02:13:54.808Z,3.61
2018-12-06T02:16:22.265Z,3.62
2018-12-06T02:18:49.717Z,3.58
2018-12-06T02:21:17.180Z,3.58
2018-12-06T02:23:44.618Z,3.59
2018-12-06T02:26:12.065Z,3.59
2018-12-06T02:28:40.040Z,3.60
2018-12-06T02:31:07.568Z,3.61
2018-12-06T02:33:35.035Z,3.65
2018-12-06T02:36:02.600Z,3.64
2018-12-06T02:38:30.046Z,3.63
2018-12-06T02:40:57.530Z,3.62
2018-12-06T02:43:25.008Z,3.62
2018-12-06T02:45:52.484Z,3.62
2018-12-06T02:48:19.983Z,3.63
2018-12-06T02:50:47.439Z,3.62
2018-12-06T02:53:14.960Z,3.61
2018-12-06T02:55:42.426Z,3.60
2018-12-06T02:58:09.895Z,3.61
2018-12-06T03:00:37.383Z,3.62
2018-12-06T03:03:04.841Z,3.62
2018-12-06T03:05:32.289Z,3.63
2018-12-06T03:07:59.758Z,3.63
2018-12-06T03:10:27.511Z,3.63
2018-12-06T03:12:54.973Z,3.61
2018-12-06T03:15:22.446Z,3.62
2018-12-06T03:17:50.007Z,3.60
2018-12-06T03:20:17.537Z,3.63
2018-12-06T03:22:44.981Z,3.65
2018-12-06T03:25:12.544Z,3.62
2018-12-06T03:27:40.019Z,3.64
2018-12-06T03:30:07.627Z,3.66
2018-12-06T03:32:35.074Z,3.68
2018-12-06T03:35:02.640Z,3.67
2018-12-06T03:37:30.120Z,3.69
2018-12-06T03:39:57.596Z,3.66
2018-12-06T03:42:25.117Z,3.72
2018-12-06T03:44:52.588Z,3.75
2018-12-06T03:47:20.029Z,3.77
2018-12-06T03:49:47.492Z,3.76
2018-12-06T03:52:14.972Z,3.77
2018-12-06T03:54:42.464Z,3.78
2018-12-06T03:57:09.953Z,3.76
2018-12-06T03:59:37.456Z,3.76
2018-12-06T04:02:05.752Z,3.74
2018-12-06T04:04:33.350Z,3.73
2018-12-06T04:07:00.828Z,3.77
2018-12-06T04:09:28.290Z,3.75
2018-12-06T04:11:55.797Z,3.74
2018-12-06T04:14:23.312Z,3.77
2018-12-06T04:16:50.781Z,3.80
2018-12-06T04:19:18.346Z,3.80
2018-12-06T04:21:45.848Z,3.83
2018-12-06T04:24:13.351Z,3.84
2018-12-06T04:26:40.822Z,3.86
2018-12-06T04:29:08.435Z,3.85
2018-12-06T04:31:36.178Z,3.89
2018-12-06T04:34:03.685Z,3.90
2018-12-06T04:36:31.160Z,3.93
2018-12-06T04:38:58.613Z,3.94
2018-12-06T04:41:27.035Z,3.95
2018-12-06T04:43:54.512Z,3.98
2018-12-06T04:46:22.653Z,4.03
2018-12-06T04:48:50.117Z,4.01
2018-12-06T04:51:18.132Z,4.05
2018-12-06T04:53:45.566Z,4.04
2018-12-06T04:56:13.044Z,4.05
2018-12-06T04:58:40.502Z,4.07
2018-12-06T05:01:07.935Z,4.09
2018-12-06T05:03:35.386Z,4.10
2018-12-06T05:06:03.487Z,4.09
2018-12-06T05:08:30.940Z,4.10
2018-12-06T05:10:58.409Z,4.13
2018-12-06T05:13:25.868Z,4.12
2018-12-06T05:15:53.769Z,4.15
2018-12-06T05:18:21.209Z,4.17
2018-12-06T05:20:48.662Z,4.19
2018-12-06T05:23:16.119Z,4.23
2018-12-06T05:25:43.560Z,4.27
2018-12-06T05:28:10.989Z,4.28
2018-12-06T05:30:38.631Z,4.33
2018-12-06T05:33:06.073Z,4.35
2018-12-06T05:35:33.552Z,4.38
2018-12-06T05:38:01.469Z,4.44
2018-12-06T05:40:28.903Z,4.46
2018-12-06T05:42:56.994Z,4.51
2018-12-06T05:45:24.441Z,4.58
2018-12-06T05:47:51.892Z,4.62
2018-12-06T05:50:19.617Z,4.70
2018-12-06T05:52:47.762Z,4.74
2018-12-06T05:55:15.195Z,4.80
2018-12-06T05:57:42.690Z,4.81
2018-12-06T06:00:10.233Z,4.87
2018-12-06T06:02:37.668Z,4.91
2018-12-06T06:05:05.950Z,4.92
2018-12-06T06:07:34.054Z,4.99
2018-12-06T06:10:01.509Z,5.14
2018-12-06T06:12:28.943Z,5.31
2018-12-06T06:14:56.401Z,5.45
2018-12-06T06:17:23.853Z,5.56
2018-12-06T06:19:51.316Z,5.66
2018-12-06T06:22:18.774Z,5.78
2018-12-06T06:24:46.266Z,5.90
2018-12-06T06:27:13.734Z,5.96
2018-12-06T06:29:41.177Z,6.06
2018-12-06T06:32:08.730Z,6.05
2018-12-06T06:34:36.351Z,6.11
2018-12-06T06:37:03.797Z,6.21
2018-12-06T06:39:31.357Z,6.23
2018-12-06T06:41:58.803Z,6.33
2018-12-06T06:44:26.247Z,6.35
2018-12-06T06:46:53.692Z,6.37
2018-12-06T06:49:21.228Z,6.40
2018-12-06T06:51:48.745Z,6.41
2018-12-06T06:54:16.221Z,6.39
2018-12-06T06:56:43.740Z,6.41
2018-12-06T06:59:11.282Z,6.45
2018-12-06T07:01:38.719Z,6.45
2018-12-06T07:04:06.287Z,6.48
2018-12-06T07:06:33.722Z,6.50
2018-12-06T07:09:02.387Z,6.54
2018-12-06T07:11:29.883Z,6.54
2018-12-06T07:13:57.337Z,6.57
2018-12-06T07:16:24.886Z,6.62
2018-12-06T07:18:52.343Z,6.64
2018-12-06T07:21:19.816Z,6.58
2018-12-06T07:23:47.301Z,6.62
2018-12-06T07:26:14.731Z,6.61
2018-12-06T07:28:42.171Z,6.61
2018-12-06T07:31:09.697Z,6.64
2018-12-06T07:33:37.228Z,6.64
2018-12-06T07:36:04.748Z,6.64
2018-12-06T07:38:32.261Z,6.64
2018-12-06T07:41:00.489Z,6.62
2018-12-06T07:43:27.957Z,6.67
2018-12-06T07:45:57.466Z,6.69
2018-12-06T07:48:24.983Z,6.67
2018-12-06T07:50:52.425Z,6.67
2018-12-06T07:53:19.928Z,6.67
2018-12-06T07:55:47.382Z,6.64
2018-12-06T07:58:14.859Z,6.57
2018-12-06T08:00:42.314Z,6.60
2018-12-06T08:03:09.762Z,6.58
2018-12-06T08:05:37.206Z,6.57
2018-12-06T08:08:04.733Z,6.54
2018-12-06T08:10:32.220Z,6.54
2018-12-06T08:13:00.448Z,6.54
2018-12-06T08:15:27.902Z,6.54
2018-12-06T08:17:55.396Z,6.55
2018-12-06T08:20:22.815Z,6.58
2018-12-06T08:22:50.447Z,6.58
2018-12-06T08:25:17.912Z,6.59
2018-12-06T08:27:45.362Z,6.59
2018-12-06T08:30:12.823Z,6.62
2018-12-06T08:32:40.254Z,6.62
2018-12-06T08:35:07.784Z,6.67
2018-12-06T08:37:35.241Z,6.69
2018-12-06T08:40:02.752Z,6.74
2018-12-06T08:42:30.352Z,6.79
2018-12-06T08:44:57.835Z,6.80
2018-12-06T08:47:25.378Z,6.85
2018-12-06T08:49:52.994Z,6.87
2018-12-06T08:52:20.477Z,6.90
2018-12-06T08:54:47.922Z,6.94
2018-12-06T08:57:15.374Z,6.99
2018-12-06T08:59:42.872Z,6.96
2018-12-06T09:02:10.330Z,6.98
2018-12-06T09:04:37.778Z,7.00
2018-12-06T09:07:05.338Z,7.07
2018-12-06T09:09:33.136Z,7.07
2018-12-06T09:12:00.711Z,7.08
2018-12-06T09:14:28.138Z,7.09
2018-12-06T09:16:55.615Z,7.09
2018-12-06T09:19:23.073Z,7.09
2018-12-06T09:21:50.542Z,7.10
2018-12-06T09:24:17.968Z,7.14
2018-12-06T09:26:45.435Z,7.18
2018-12-06T09:29:13.469Z,7.23
2018-12-06T09:31:40.916Z,7.24
2018-12-06T09:34:08.476Z,7.29
2018-12-06T09:36:36.206Z,7.32
2018-12-06T09:39:06.510Z,7.37
2018-12-06T09:41:34.014Z,7.46
2018-12-06T09:44:01.479Z,7.48
2018-12-06T09:46:30.925Z,7.55
2018-12-06T09:48:58.381Z,7.60
2018-12-06T09:51:25.823Z,7.65
2018-12-06T09:53:53.392Z,7.72
2018-12-06T09:56:20.857Z,7.75
2018-12-06T09:58:48.377Z,7.85
2018-12-06T10:01:15.844Z,7.90
2018-12-06T10:03:43.302Z,7.96
2018-12-06T10:06:10.761Z,7.97
2018-12-06T10:08:38.269Z,7.97
2018-12-06T10:11:05.711Z,7.98
2018-12-06T10:13:33.227Z,8.05
2018-12-06T10:16:00.726Z,8.13
2018-12-06T10:18:28.166Z,8.21
2018-12-06T10:20:55.713Z,8.23
2018-12-06T10:23:23.195Z,8.26
2018-12-06T10:25:50.654Z,8.29
2018-12-06T10:28:18.193Z,8.30
2018-12-06T10:30:45.663Z,8.34
2018-12-06T10:33:13.144Z,8.35
2018-12-06T10:35:40.582Z,8.41
2018-12-06T10:38:08.122Z,8.42
2018-12-06T10:40:35.583Z,8.45
2018-12-06T10:43:03.090Z,8.51
2018-12-06T10:45:30.687Z,8.55
2018-12-06T10:47:58.145Z,8.65
2018-12-06T10:50:25.595Z,8.70
2018-12-06T10:52:53.046Z,8.73
2018-12-06T10:55:20.493Z,8.84
2018-12-06T10:57:47.943Z,8.85
2018-12-06T11:00:17.414Z,8.83
2018-12-06T11:02:48.629Z,8.82
2018-12-06T11:05:16.062Z,8.82
2018-12-06T11:07:43.505Z,8.85
2018-12-06T11:10:11.002Z,8.88
2018-12-06T11:12:38.460Z,8.87
2018-12-06T11:15:06.442Z,8.84
2018-12-06T11:17:35.495Z,8.81
2018-12-06T11:20:04.679Z,8.81
2018-12-06T11:22:32.153Z,8.82
2018-12-06T11:24:59.597Z,8.86
2018-12-06T11:27:27.064Z,8.94
2018-12-06T11:29:54.533Z,9.01
2018-12-06T11:32:21.990Z,9.10
2018-12-06T11:34:49.450Z,9.16
2018-12-06T11:37:16.891Z,9.21
2018-12-06T11:39:44.395Z,9.27
2018-12-06T11:42:11.885Z,9.27
2018-12-06T11:44:39.334Z,9.28
2018-12-06T11:47:06.789Z,9.30
2018-12-06T11:49:34.241Z,9.31
2018-12-06T11:52:01.744Z,9.32
2018-12-06T11:54:29.204Z,9.29
2018-12-06T11:56:56.622Z,9.32
2018-12-06T11:59:24.065Z,9.33
2018-12-06T12:01:51.510Z,9.34
2018-12-06T12:04:18.960Z,9.34
2018-12-06T12:06:46.429Z,9.33
2018-12-06T12:09:13.889Z,9.34
2018-12-06T12:11:41.356Z,9.33
2018-12-06T12:14:08.838Z,9.29
2018-12-06T12:16:36.298Z,9.34
2018-12-06T12:19:03.855Z,9.35
2018-12-06T12:21:31.286Z,9.33
2018-12-06T12:23:58.739Z,9.35
2018-12-06T12:26:26.206Z,9.33
2018-12-06T12:28:53.706Z,9.34
2018-12-06T12:31:21.154Z,9.34
2018-12-06T12:33:48.603Z,9.38
2018-12-06T12:36:16.104Z,9.35
2018-12-06T12:38:43.561Z,9.34
2018-12-06T12:41:11.004Z,9.36
2018-12-06T12:43:38.431Z,9.35
2018-12-06T12:46:05.897Z,9.30
2018-12-06T12:48:33.376Z,9.25
2018-12-06T12:51:00.835Z,9.24
2018-12-06T12:53:28.288Z,9.25
2018-12-06T12:55:56.380Z,9.19
2018-12-06T12:58:25.252Z,9.13
2018-12-06T13:00:52.840Z,9.14
2018-12-06T13:03:20.339Z,9.11
2018-12-06T13:05:47.780Z,9.03
2018-12-06T13:08:15.239Z,8.99
2018-12-06T13:10:42.712Z,9.01
2018-12-06T13:13:10.170Z,9.04
2018-12-06T13:15:37.632Z,9.03
2018-12-06T13:18:05.138Z,9.01
2018-12-06T13:20:32.635Z,9.03
2018-12-06T13:23:00.117Z,9.04
2018-12-06T13:25:27.625Z,9.04
2018-12-06T13:27:55.108Z,9.07
2018-12-06T13:30:22.547Z,9.05
2018-12-06T13:32:50.035Z,9.01
2018-12-06T13:35:17.563Z,9.00
2018-12-06T13:37:45.046Z,9.03
2018-12-06T13:40:12.585Z,9.04
2018-12-06T13:42:40.094Z,8.99
2018-12-06T13:45:07.543Z,8.96
2018-12-06T13:47:35.024Z,9.03
2018-12-06T13:50:02.544Z,9.01
2018-12-06T13:52:29.995Z,8.99
2018-12-06T13:54:57.452Z,8.96
2018-12-06T13:57:24.911Z,8.98
2018-12-06T13:59:52.373Z,8.96
2018-12-06T14:02:19.822Z,8.97
2018-12-06T14:04:47.332Z,8.96
2018-12-06T14:07:14.767Z,8.96
2018-12-06T14:09:43.009Z,8.98
2018-12-06T14:12:10.517Z,8.91
2018-12-06T14:14:38.033Z,8.89
2018-12-06T14:17:05.515Z,8.83
2018-12-06T14:19:33.030Z,8.80
2018-12-06T14:22:00.560Z,8.80
2018-12-06T14:24:28.063Z,8.82
2018-12-06T14:26:55.648Z,8.85
2018-12-06T14:29:23.105Z,8.86
2018-12-06T14:31:50.609Z,8.85
2018-12-06T14:34:18.550Z,8.89
2018-12-06T14:36:46.079Z,8.91
2018-12-06T14:39:13.539Z,8.91
2018-12-06T14:41:40.993Z,8.91
2018-12-06T14:44:08.499Z,8.93
2018-12-06T14:46:35.965Z,8.91
2018-12-06T14:49:04.220Z,8.93
2018-12-06T14:51:31.681Z,8.93
2018-12-06T14:53:59.136Z,8.92
2018-12-06T14:56:26.598Z,8.91
2018-12-06T14:58:54.035Z,8.90
2018-12-06T15:01:21.494Z,8.90
2018-12-06T15:03:49.031Z,8.91
2018-12-06T15:06:16.496Z,8.93
2018-12-06T15:08:43.952Z,8.95
2018-12-06T15:11:11.478Z,8.99
2018-12-06T15:13:38.934Z,8.98
2018-12-06T15:16:06.390Z,9.00
2018-12-06T15:18:33.830Z,8.99
2018-12-06T15:21:01.316Z,9.00
2018-12-06T15:23:28.770Z,9.04
2018-12-06T15:25:56.482Z,9.05
2018-12-06T15:28:23.926Z,9.07
2018-12-06T15:30:51.374Z,9.10
2018-12-06T15:33:18.844Z,9.15
2018-12-06T15:35:46.366Z,9.13
2018-12-06T15:38:13.792Z,9.18
2018-12-06T15:40:41.556Z,9.19
2018-12-06T15:43:09.057Z,9.22
2018-12-06T15:45:36.508Z,9.22
2018-12-06T15:48:04.984Z,9.23
2018-12-06T15:50:32.891Z,9.30
2018-12-06T15:53:02.399Z,9.28
2018-12-06T15:55:30.517Z,9.29
2018-12-06T15:57:58.186Z,9.28
2018-12-06T16:00:25.642Z,9.26
2018-12-06T16:02:55.378Z,9.21
2018-12-06T16:05:22.995Z,9.20
2018-12-06T16:07:50.656Z,9.24
2018-12-06T16:10:18.238Z,9.24
2018-12-06T16:12:46.026Z,9.23
2018-12-06T16:15:14.895Z,9.27
2018-12-06T16:17:42.570Z,9.29
2018-12-06T16:20:10.802Z,9.30
2018-12-06T16:22:39.106Z,9.34
2018-12-06T16:25:07.557Z,9.37
2018-12-06T16:27:35.851Z,9.55
2018-12-06T16:30:05.084Z,9.50
2018-12-06T16:32:32.605Z,9.52
2018-12-06T16:35:00.171Z,9.57
2018-12-06T16:37:27.916Z,9.61
2018-12-06T16:39:55.432Z,9.65
2018-12-06T16:42:23.907Z,9.67
2018-12-06T16:44:51.975Z,9.69
2018-12-06T16:47:19.512Z,9.73
2018-12-06T16:49:47.082Z,9.70
2018-12-06T16:52:15.288Z,9.73
2018-12-06T16:54:43.716Z,9.66
2018-12-06T16:57:11.240Z,9.80
2018-12-06T16:59:38.784Z,9.67
2018-12-06T17:02:06.415Z,9.73
2018-12-06T17:04:34.133Z,9.65
2018-12-06T17:07:01.723Z,9.64
2018-12-06T17:09:29.222Z,9.66
2018-12-06T17:11:56.749Z,9.62
2018-12-06T17:14:24.279Z,9.62
2018-12-06T17:16:51.923Z,9.63
2018-12-06T17:19:19.462Z,9.66
2018-12-06T17:21:47.368Z,9.65
2018-12-06T17:24:14.897Z,9.62
2018-12-06T17:26:42.431Z,9.65
2018-12-06T17:29:11.612Z,9.67
2018-12-06T17:31:39.148Z,9.70
2018-12-06T17:34:06.772Z,9.73
2018-12-06T17:36:34.999Z,9.74
2018-12-06T17:39:02.685Z,9.77
2018-12-06T17:41:30.234Z,9.78
2018-12-06T17:44:04.923Z,9.81
2018-12-06T17:46:32.618Z,9.85
2018-12-06T17:49:00.204Z,9.84
2018-12-06T17:51:27.978Z,9.91
2018-12-06T17:53:55.488Z,9.91
2018-12-06T17:56:23.035Z,9.92
2018-12-06T17:58:50.647Z,9.94
2018-12-06T18:01:18.211Z,9.98
2018-12-06T18:03:46.378Z,9.95
2018-12-06T18:06:13.895Z,9.99
2018-12-06T18:08:41.859Z,9.99
2018-12-06T18:11:14.457Z,10.05
2018-12-06T18:13:42.169Z,10.01
2018-12-06T18:16:09.754Z,10.02
2018-12-06T18:18:40.361Z,10.00
2018-12-06T18:21:07.000Z,10.01
2018-12-06T18:23:34.540Z,10.02
2018-12-06T18:26:02.394Z,10.01
2018-12-06T18:28:29.959Z,9.98
2018-12-06T18:30:57.502Z,10.01
2018-12-06T18:33:25.071Z,10.02
2018-12-06T18:35:53.610Z,10.01
2018-12-06T18:38:21.107Z,9.98
2018-12-06T18:40:48.886Z,9.99
2018-12-06T18:43:17.569Z,10.01
2018-12-06T18:45:45.372Z,10.03
2018-12-06T18:48:12.983Z,10.05
2018-12-06T18:50:40.539Z,10.10
2018-12-06T18:53:08.087Z,10.08
2018-12-06T18:55:35.621Z,10.11
2018-12-06T18:58:03.192Z,10.08
2018-12-06T19:00:30.653Z,10.13
2018-12-06T19:02:58.189Z,10.16
2018-12-06T19:05:25.715Z,10.17
2018-12-06T19:07:53.817Z,10.16
2018-12-06T19:10:21.300Z,10.17
2018-12-06T19:12:48.758Z,10.19
2018-12-06T19:15:16.277Z,10.19
2018-12-06T19:17:43.878Z,10.20
2018-12-06T19:20:11.409Z,10.20
2018-12-06T19:22:39.380Z,10.18
2018-12-06T19:25:07.034Z,10.18
2018-12-06T19:27:34.613Z,10.20
2018-12-06T19:30:02.260Z,10.18
2018-12-06T19:32:29.745Z,10.17
2018-12-06T19:34:57.343Z,10.16
2018-12-06T19:37:24.835Z,10.13
2018-12-06T19:39:52.983Z,10.16
2018-12-06T19:42:20.997Z,10.16
2018-12-06T19:44:48.608Z,10.19
2018-12-06T19:47:16.119Z,10.20
2018-12-06T19:49:43.583Z,10.17
2018-12-06T19:52:11.114Z,10.24
2018-12-06T19:54:38.618Z,10.20
2018-12-06T19:57:06.532Z,10.22
2018-12-06T19:59:34.018Z,10.24
2018-12-06T20:02:01.818Z,10.27
2018-12-06T20:04:29.442Z,10.29
2018-12-06T20:07:11.437Z,10.26
2018-12-06T20:09:40.030Z,10.31
2018-12-06T20:12:07.547Z,10.31
2018-12-06T20:14:35.244Z,10.34
2018-12-06T20:17:02.803Z,10.35
2018-12-06T20:19:32.342Z,10.37
2018-12-06T20:21:59.947Z,10.36
2018-12-06T20:24:27.436Z,10.35
2018-12-06T20:26:55.429Z,10.40
2018-12-06T20:29:23.032Z,10.42
2018-12-06T20:31:50.526Z,10.41
2018-12-06T20:34:18.771Z,10.47
2018-12-06T20:36:46.253Z,10.50
2018-12-06T20:39:14.244Z,10.53
2018-12-06T20:41:41.774Z,10.51
2018-12-06T20:44:10.063Z,10.49
2018-12-06T20:46:38.343Z,10.51
2018-12-06T20:49:05.830Z,10.53
2018-12-06T20:51:33.640Z,10.51
2018-12-06T20:54:01.157Z,10.52
2018-12-06T20:56:28.714Z,10.49
2018-12-06T20:58:56.251Z,10.52
2018-12-06T21:01:23.850Z,10.53
2018-12-06T21:03:51.437Z,10.53
2018-12-06T21:06:20.600Z,10.52
2018-12-06T21:08:48.737Z,10.54
2018-12-06T21:11:16.441Z,10.54
2018-12-06T21:13:44.038Z,10.51
2018-12-06T21:16:12.003Z,10.53
2018-12-06T21:18:40.127Z,10.55
2018-12-06T21:21:07.886Z,10.55
2018-12-06T21:23:35.441Z,10.58
2018-12-06T21:26:04.327Z,10.58
2018-12-06T21:28:31.980Z,10.58
2018-12-06T21:30:59.620Z,10.62
2018-12-06T21:33:27.187Z,10.62
2018-12-06T21:35:54.678Z,10.64
2018-12-06T21:38:22.166Z,10.67
2018-12-06T21:40:49.841Z,10.67
2018-12-06T21:43:17.362Z,10.67
2018-12-06T21:45:45.222Z,10.70
2018-12-06T21:48:13.203Z,10.67
2018-12-06T21:50:40.702Z,10.66
2018-12-06T21:53:08.502Z,10.68
2018-12-06T21:55:36.027Z,10.69
2018-12-06T21:58:04.756Z,10.71
2018-12-06T22:00:32.440Z,10.69
2018-12-06T22:02:59.884Z,10.71
2018-12-06T22:05:27.477Z,10.77
2018-12-06T22:07:55.038Z,10.72
2018-12-06T22:10:22.541Z,10.72
2018-12-06T22:12:50.118Z,10.73
2018-12-06T22:15:17.678Z,10.73
2018-12-06T22:17:45.725Z,10.75
2018-12-06T22:20:13.240Z,10.75
2018-12-06T22:22:40.986Z,10.75
2018-12-06T22:25:08.512Z,10.78
2018-12-06T22:27:35.996Z,10.76
2018-12-06T22:30:04.788Z,10.77
2018-12-06T22:32:32.319Z,10.78
2018-12-06T22:35:00.330Z,10.78
2018-12-06T22:37:27.901Z,10.79
2018-12-06T22:39:55.468Z,10.80
2018-12-06T22:42:22.971Z,10.80
2018-12-06T22:44:52.515Z,10.86
2018-12-06T22:47:20.077Z,10.83
2018-12-06T22:49:49.077Z,10.86
2018-12-06T22:52:16.701Z,10.85
2018-12-06T22:54:44.364Z,10.89
2018-12-06T22:57:12.489Z,10.85
2018-12-06T22:59:40.538Z,10.86
2018-12-06T23:02:08.083Z,10.88
2018-12-06T23:04:35.633Z,10.93
2018-12-06T23:07:03.136Z,10.93
2018-12-06T23:09:30.691Z,10.96
2018-12-06T23:11:58.290Z,10.94
2018-12-06T23:14:25.759Z,10.98
2018-12-06T23:16:53.217Z,11.00
2018-12-06T23:19:20.642Z,11.00
2018-12-06T23:21:48.659Z,11.00
2018-12-06T23:24:16.136Z,10.98
2018-12-06T23:26:44.444Z,11.00
2018-12-06T23:29:11.894Z,11.01
2018-12-06T23:31:40.000Z,10.98
2018-12-06T23:34:07.463Z,10.97
2018-12-06T23:36:35.020Z,10.95
2018-12-06T23:39:02.595Z,11.03
2018-12-06T23:41:30.774Z,10.99
2018-12-06T23:43:58.284Z,11.03
2018-12-06T23:46:25.727Z,11.05
2018-12-06T23:48:53.174Z,11.03
2018-12-06T23:51:33.508Z,11.02
2018-12-06T23:54:01.033Z,11.02
2018-12-06T23:56:28.515Z,11.03
2018-12-06T23:58:57.669Z,11.07
